Latest Weather Observations for Thredbo Top Station

IDN60801

Issued at 11:32 pm EST Tuesday 4 August 2015 (issued every 30 minutes, with the page automatically refreshed every 10 minutes)

About weather observations | Map of weather stations | Latest weather observations for NSW | Other Formats
Station Details ID: 071032 Name: THREDBO AWS Lat: -36.49 Lon: 148.29 Height: 1957.0 m
Data from the previous 72 hours. | See also: Recent months at Thredbo Top Station
Date/Time
EST
Temp
°C
App
Temp
°C
Dew
Point
Rel
Hum
%
Delta-T
°C
Wind Press
QNH
hPa
Press
MSL
hPa
Rain
since 9 am
mm
Dir
 
Spd
km/h
Gust
km/h
Spd
kts
Gust
kts
04/11:30pm -7.3 -18.4 -8.0 95 -0.1 NW 43 54 23 29 - - 0.0
04/11:00pm -7.6 -18.9 -8.3 95 -0.1 NW 44 54 24 29 - - 0.0
04/10:30pm -7.8 -19.5 -8.6 94 0.0 NW 46 59 25 32 - - 0.0
04/10:01pm -8.0 -19.3 -8.8 94 -0.1 NNW 44 65 24 35 - - 0.0
04/10:00pm -7.9 -19.0 -8.7 94 -0.1 NNW 43 56 23 30 - - 0.0
04/09:30pm -8.0 -20.5 -8.8 94 -0.1 NNW 50 65 27 35 - - 0.0
04/09:00pm -8.1 -20.6 -8.9 94 -0.1 NW 50 59 27 32 - - 0.0
04/08:30pm -8.1 -20.9 -8.9 94 -0.1 NNW 52 65 28 35 - - 0.0
04/08:00pm -7.9 -20.4 -8.7 94 -0.1 NW 50 61 27 33 - - 0.0
04/07:30pm -8.0 -20.5 -8.8 94 -0.1 NNW 50 61 27 33 - - 0.0
04/07:00pm -8.2 -21.4 -9.0 94 -0.1 NW 54 65 29 35 - - 0.0
04/06:30pm -8.3 -20.0 -9.1 94 -0.1 NW 46 56 25 30 - - 0.0
04/06:00pm -7.9 -19.2 -8.7 94 -0.1 NW 44 57 24 31 - - 0.0
04/05:30pm -7.7 -18.0 -8.4 95 -0.1 NW 39 46 21 25 - - 0.0
04/05:00pm -7.9 -19.2 -8.7 94 -0.1 NW 44 56 24 30 - - 0.0
04/04:30pm -7.7 -19.0 -8.4 95 -0.1 NW 44 56 24 30 - - 0.0
04/04:00pm -8.0 -19.7 -8.8 94 -0.1 NW 46 57 25 31 - - 0.0
04/03:30pm -8.0 -19.3 -8.8 94 -0.1 NW 44 56 24 30 - - 0.0
04/03:00pm -6.9 -18.5 -8.0 92 0.1 NW 46 56 25 30 - - 0.0
04/02:30pm -6.7 -17.0 -7.9 91 0.1 NW 39 50 21 27 - - 0.0
04/02:00pm -6.7 -17.4 -7.8 92 0.1 NW 41 46 22 25 - - 0.0
04/01:30pm -6.2 -16.1 -7.3 92 0.1 NW 37 43 20 23 - - 0.0
04/01:00pm -5.6 -16.2 -6.8 91 0.1 NW 41 46 22 25 - - 0.0
04/12:30pm -6.0 -16.2 -7.1 92 0.1 NW 39 46 21 25 - - 0.0
04/12:00pm -5.0 -13.8 -6.4 90 0.2 WNW 32 39 17 21 - - 0.0
04/11:30am -5.2 -14.0 -6.4 91 0.2 NW 32 37 17 20 - - 0.0
04/11:00am -5.8 -13.5 -6.9 92 0.1 WNW 26 33 14 18 - - 0.0
04/10:30am -6.2 -14.4 -7.3 92 0.1 WNW 28 35 15 19 - - 0.0
04/10:00am -7.2 -15.4 -8.3 92 0.1 WNW 28 35 15 19 - - 0.0
04/09:30am -7.7 -16.3 -8.6 93 0.0 WNW 30 35 16 19 - - 0.0
04/09:00am -8.0 -15.9 -8.9 93 0.0 WNW 26 32 14 17 - - 0.0
04/08:30am -8.5 -16.1 -9.4 93 0.0 WNW 24 28 13 15 - - 0.0
04/08:00am -8.7 -15.5 -9.6 93 0.0 WNW 20 28 11 15 - - 0.0
04/07:30am -9.4 -15.7 -10.5 92 0.0 WNW 17 22 9 12 - - 0.0
04/07:00am -9.2 -16.1 -10.3 92 0.0 NW 20 26 11 14 - - 0.0
04/06:30am -9.7 -17.4 -10.7 92 0.0 WNW 24 28 13 15 - - 0.0
04/06:00am -9.6 -17.3 -10.6 92 0.0 WNW 24 32 13 17 - - 0.0
04/05:30am -9.7 -17.7 -10.7 92 0.0 WNW 26 30 14 16 - - 0.0
04/05:00am -9.6 -16.5 -10.6 92 0.0 WNW 20 28 11 15 - - 0.0
04/04:30am - - - - - WNW 15 22 8 12 - - 0.0
04/04:00am - - - - - CALM 0 0 0 0 - - 0.0
04/03:30am -10.3 -13.5 -11.5 91 0.0 CALM 0 0 0 0 - - 0.0
04/03:00am -9.9 -14.7 -10.9 92 -0.1 W 9 19 5 10 - - 0.0
04/02:30am -9.2 -14.4 -10.1 93 -0.1 SW 11 15 6 8 - - 0.0
04/02:00am -9.0 -13.8 -9.9 93 -0.1 SSW 9 17 5 9 - - 0.0
04/01:30am -9.0 -16.2 -9.9 93 -0.1 SW 22 32 12 17 - - 0.0
04/01:00am -9.3 -14.5 -10.2 93 -0.1 SW 11 24 6 13 - - 0.0
04/12:30am -8.9 -16.9 -9.8 93 -0.1 WSW 26 33 14 18 - - 0.0
04/12:00am -8.8 -17.2 -9.7 93 -0.1 WSW 28 41 15 22 - - 0.0
 
Date/Time
EST
Temp
°C
App
Temp
°C
Dew
Point
Rel
Hum
%
Delta-T
°C
Wind Press
QNH
hPa
Press
MSL
hPa
Rain
since 9 am
mm
Dir
 
Spd
km/h
Gust
km/h
Spd
kts
Gust
kts
03/11:30pm -8.9 -18.2 -9.8 93 -0.1 WSW 33 48 18 26 - - 0.0
03/11:00pm -8.7 -18.0 -9.5 94 -0.1 WSW 33 43 18 23 - - 0.0
03/10:30pm -8.7 -16.3 -9.5 94 -0.1 W 24 37 13 20 - - 0.0
03/10:00pm -8.2 -15.7 -9.0 94 -0.1 WSW 24 33 13 18 - - 0.0
03/09:30pm -8.2 -16.9 -9.0 94 -0.1 WSW 30 39 16 21 - - 0.0
03/09:00pm -8.1 -16.4 -8.9 94 -0.1 WSW 28 33 15 18 - - 0.0
03/08:30pm -7.9 -15.4 -8.6 95 -0.1 SW 24 35 13 19 - - 0.0
03/08:00pm -7.8 -16.8 -8.5 95 -0.1 WSW 32 41 17 22 - - 0.0
03/07:30pm -6.8 -15.7 -7.3 96 -0.1 WSW 32 43 17 23 - - 0.0
03/07:00pm -6.1 -13.0 -6.5 97 -0.1 WSW 22 32 12 17 - - 0.0
03/06:30pm -5.8 -13.8 -6.2 97 -0.1 W 28 39 15 21 - - 0.0
03/06:02pm -5.9 -14.0 -6.3 97 -0.1 W 28 46 15 25 - - 0.0
03/06:00pm -5.9 -14.0 -6.3 97 -0.1 W 28 44 15 24 - - 0.0
03/05:30pm -6.0 -15.4 -6.4 97 -0.1 W 35 46 19 25 - - 0.0
03/05:00pm -5.6 -15.0 -5.9 98 -0.1 W 35 46 19 25 - - 0.0
03/04:30pm -5.5 -15.2 -5.8 98 -0.1 WNW 37 52 20 28 - - 0.0
03/04:00pm -5.4 -15.1 -5.7 98 -0.1 WNW 37 48 20 26 - - 0.0
03/03:43pm -5.2 -15.3 -5.5 98 -0.1 WNW 39 57 21 31 - - 0.0
03/03:30pm -5.4 -16.3 -5.7 98 -0.1 WNW 43 59 23 32 - - 0.0
03/03:05pm -5.3 -16.3 -5.6 98 -0.1 WNW 44 63 24 34 - - 0.0
03/03:00pm -5.1 -16.9 -5.4 98 -0.1 WNW 48 63 26 34 - - 0.0
03/02:59pm -5.0 -16.4 -5.3 98 -0.1 WNW 46 63 25 34 - - 0.0
03/02:32pm -5.0 -18.5 -5.3 98 -0.1 NW 57 76 31 41 - - 0.0
03/02:30pm -5.1 -19.3 -5.4 98 -0.1 NW 61 76 33 41 - - 0.0
03/02:00pm -4.3 -18.8 -4.6 98 -0.1 NW 63 85 34 46 - - 0.0
03/01:30pm -4.2 -17.4 -4.5 98 -0.1 NW 56 83 30 45 - - 0.0
03/01:00pm -3.8 -19.0 -3.9 99 -0.1 NW 67 91 36 49 - - 0.0
03/12:45pm -3.9 -18.7 -4.0 99 -0.1 NNW 65 85 35 46 - - 0.0
03/12:40pm -4.0 -19.6 -4.1 99 -0.1 NNW 69 93 37 50 - - 0.0
03/12:30pm -4.3 -21.7 -4.6 98 -0.1 NNW 78 100 42 54 - - 0.0
03/12:03pm -4.3 -22.1 -4.6 98 -0.1 NNW 80 100 43 54 - - 0.0
03/12:00pm -4.2 -22.0 -4.5 98 -0.1 NNW 80 100 43 54 - - 0.0
03/11:59am -4.3 -21.7 -4.6 98 -0.1 NNW 78 100 42 54 - - 0.0
03/11:30am -3.7 -19.3 -3.8 99 -0.1 NNW 69 89 37 48 - - 0.0
03/11:00am -3.8 -21.1 -3.9 99 -0.1 NNW 78 98 42 53 - - 0.0
03/10:56am -3.7 -20.2 -3.8 99 -0.1 NW 74 98 40 53 - - 0.0
03/10:54am -3.8 -20.3 -3.9 99 -0.1 NNW 74 98 40 53 - - 0.0
03/10:42am -3.8 -19.0 -3.9 99 -0.1 NW 67 89 36 48 - - 0.0
03/10:30am -4.0 -21.3 -4.1 99 -0.1 NNW 78 106 42 57 - - 0.0
03/10:27am -4.1 -20.7 -4.4 98 -0.1 NNW 74 106 40 57 - - 0.0
03/10:00am -3.8 -17.9 -3.9 99 -0.1 NW 61 82 33 44 - - 0.0
03/09:30am -3.9 -19.7 -4.0 99 -0.1 NNW 70 93 38 50 - - 0.0
03/09:00am -4.0 -18.5 -4.1 99 -0.1 NNW 63 87 34 47 - - 4.6
03/08:30am -4.2 -18.7 -4.5 98 -0.1 NNW 63 87 34 47 - - 4.6
03/08:00am -4.3 -19.2 -4.6 98 -0.1 NNW 65 83 35 45 - - 4.6
03/07:58am -4.3 -19.2 -4.6 98 -0.1 NNW 65 83 35 45 - - 4.6
03/07:52am -4.4 -18.9 -4.7 98 -0.1 NNW 63 83 34 45 - - 4.6
03/07:30am -4.3 -17.7 -4.6 98 -0.1 NW 57 80 31 43 1011.5 1015.9 4.6
03/07:29am -4.1 -17.8 -4.2 99 -0.1 NW 59 82 32 44 1011.5 1015.9 4.6
03/07:02am -4.0 -20.6 -4.1 99 -0.1 NNW 74 93 40 50 1011.2 1015.7 4.6
03/07:00am -4.0 -21.0 -4.1 99 -0.1 NNW 76 93 41 50 1011.1 1015.5 4.6
03/06:54am -4.0 -19.8 -4.1 99 -0.1 NNW 70 93 38 50 1011.1 1015.5 4.6
03/06:50am -4.0 -18.9 -4.1 99 -0.1 NNW 65 82 35 44 1011.1 1015.5 4.6
03/06:30am -4.1 -16.9 -4.4 98 -0.1 NNW 54 74 29 40 1011.0 1015.4 4.6
03/06:20am -4.2 -18.3 -4.5 98 -0.1 NW 61 80 33 43 1011.1 1015.5 4.6
03/06:05am -4.3 -20.5 -4.6 98 -0.1 NNW 72 93 39 50 1011.2 1015.7 4.6
03/06:00am -4.0 -19.8 -4.1 99 -0.1 NNW 70 85 38 46 1011.1 1015.5 4.6
03/05:33am -4.2 -19.8 -4.3 99 -0.1 NNW 69 87 37 47 1011.1 1015.5 4.6
03/05:30am -3.8 -19.4 -3.9 99 -0.1 NNW 69 85 37 46 1010.6 1014.9 4.6
03/05:06am -3.4 -17.4 -3.5 99 -0.1 NNW 61 82 33 44 - - 4.6
03/05:00am -3.5 -17.5 -3.6 99 -0.1 NNW 61 78 33 42 - - 4.6
03/04:31am -3.6 -18.8 -3.7 99 -0.1 NNW 67 85 36 46 1010.9 1015.3 4.6
03/04:30am -3.6 -18.8 -3.7 99 -0.1 NNW 67 80 36 43 1010.9 1015.3 4.6
03/04:03am -3.5 -19.6 -3.6 99 -0.1 NNW 72 91 39 49 1010.9 1015.3 4.6
03/04:00am -3.5 -20.0 -3.6 99 -0.1 NNW 74 91 40 49 1011.0 1015.4 4.6
03/03:30am -3.9 -19.7 -4.0 99 -0.1 NNW 70 89 38 48 1011.7 1016.1 4.6
03/03:26am -3.8 -19.6 -3.9 99 -0.1 NNW 70 89 38 48 1011.6 1016.0 4.6
03/03:00am -3.9 -18.7 -4.0 99 -0.1 NNW 65 76 35 41 1012.2 1016.6 4.6
03/02:50am -3.5 -19.1 -3.6 99 -0.1 NNW 69 89 37 48 1011.9 1016.4 4.6
03/02:30am -3.4 -18.6 -3.5 99 -0.1 NNW 67 82 36 44 - - 4.6
03/02:26am -3.4 -17.8 -3.5 99 -0.1 NNW 63 82 34 44 - - 4.6
03/02:19am -3.4 -19.1 -3.5 99 -0.1 NNW 70 89 38 48 - - 4.6
03/02:00am -3.2 -20.4 -3.3 99 -0.1 NNW 78 102 42 55 - - 4.6
03/01:36am -3.1 -19.9 -3.2 99 -0.1 NNW 76 95 41 51 - - 4.6
03/01:30am -3.1 -19.6 -3.2 99 -0.1 NNW 74 91 40 49 - - 4.6
03/01:00am -3.2 -19.3 -3.3 99 -0.1 NNW 72 91 39 49 - - 4.6
03/12:30am -3.3 -20.2 -3.4 99 -0.1 NNW 76 95 41 51 - - 4.6
03/12:01am -3.3 -19.4 -3.4 99 -0.1 NNW 72 91 39 49 - - 4.6
03/12:00am -3.4 -19.1 -3.5 99 -0.1 NNW 70 83 38 45 - - 4.6
 
Date/Time
EST
Temp
°C
App
Temp
°C
Dew
Point
Rel
Hum
%
Delta-T
°C
Wind Press
QNH
hPa
Press
MSL
hPa
Rain
since 9 am
mm
Dir
 
Spd
km/h
Gust
km/h
Spd
kts
Gust
kts
02/11:30pm -3.4 -18.6 -3.5 99 -0.1 NNW 67 85 36 46 - - 4.6
02/11:05pm -3.5 -19.3 -3.6 99 -0.1 NNW 70 91 38 49 - - 4.6
02/11:00pm -3.6 -19.7 -3.7 99 -0.1 NNW 72 85 39 46 - - 4.6
02/10:30pm -3.7 -18.5 -3.8 99 -0.1 NNW 65 87 35 47 - - 4.6
02/10:03pm -3.8 -20.0 -3.9 99 -0.1 NNW 72 91 39 49 - - 4.6
02/10:00pm -3.9 -19.7 -4.0 99 -0.1 NNW 70 87 38 47 - - 4.6
02/09:33pm -4.1 -19.4 -4.2 99 -0.1 NNW 67 85 36 46 - - 4.6
02/09:30pm -4.2 -19.8 -4.3 99 -0.1 NNW 69 85 37 46 - - 4.6
02/09:00pm -4.4 -21.0 -4.7 98 -0.1 NNW 74 100 40 54 - - 4.6
02/08:30pm -4.6 -21.6 -4.9 98 -0.1 NNW 76 95 41 51 - - 4.6
02/08:02pm -4.6 -20.5 -4.9 98 -0.1 NNW 70 89 38 48 - - 4.6
02/08:00pm -4.7 -21.0 -5.0 98 -0.1 NNW 72 89 39 48 - - 4.6
02/07:31pm -4.6 -21.3 -4.9 98 -0.1 NNW 74 93 40 50 - - 4.6
02/07:30pm -4.6 -21.3 -4.9 98 -0.1 NNW 74 91 40 49 - - 4.6
02/07:15pm -4.6 -21.3 -4.9 98 -0.1 NNW 74 93 40 50 - - 4.6
02/07:00pm -4.6 -21.6 -4.9 98 -0.1 NNW 76 91 41 49 - - 4.6
02/06:43pm -5.0 -22.5 -5.3 98 -0.1 NNW 78 96 42 52 - - 4.6
02/06:30pm -5.3 -23.2 -5.6 98 -0.1 NNW 80 93 43 50 - - 4.6
02/06:02pm -4.5 -21.5 -4.8 98 -0.1 NNW 76 95 41 51 - - 4.6
02/06:00pm -4.7 -22.1 -5.0 98 -0.1 NNW 78 95 42 51 - - 4.6
02/05:51pm -4.6 -21.3 -4.9 98 -0.1 NNW 74 93 40 50 - - 4.6
02/05:30pm -4.7 -21.0 -5.0 98 -0.1 NNW 72 89 39 48 - - 4.6
02/05:00pm -4.0 -19.8 -4.1 99 -0.1 NNW 70 83 38 45 - - 4.6
02/04:30pm -4.0 -18.5 -4.1 99 -0.1 NNW 63 82 34 44 - - 4.6
02/04:00pm -3.4 -19.1 -3.5 99 -0.1 NNW 70 89 38 48 - - 4.6
02/03:50pm -3.7 -19.9 -3.8 99 -0.1 NNW 72 95 39 51 - - 4.6
02/03:30pm -3.0 -18.1 -3.1 99 -0.1 NNW 67 82 36 44 - - 4.6
02/03:05pm -2.8 -16.4 -2.9 99 -0.1 NNW 59 78 32 42 - - 4.6
02/03:00pm -3.0 -16.6 -3.1 99 -0.1 NNW 59 74 32 40 - - 4.6
02/02:32pm -2.6 -14.8 -2.7 99 -0.1 NW 52 72 28 39 - - 4.6
02/02:30pm -2.5 -14.7 -2.6 99 -0.1 NW 52 69 28 37 - - 4.6
02/02:22pm -2.8 -14.3 -2.9 99 -0.1 NW 48 70 26 38 - - 4.6
02/02:14pm -2.3 -12.0 -2.4 99 -0.1 NW 39 70 21 38 - - 4.6
02/02:00pm -1.7 -10.2 -1.8 99 0.0 NW 33 52 18 28 - - 4.6
02/01:53pm -1.3 -9.7 -1.4 99 0.0 NW 33 52 18 28 - - 4.6
02/01:30pm -0.9 -8.7 -1.0 99 0.0 WNW 30 43 16 23 - - 4.2
02/01:27pm -0.9 -8.7 -1.0 99 0.0 WNW 30 48 16 26 - - 4.2
02/01:00pm -1.2 -10.8 -1.3 99 0.0 NW 39 56 21 30 - - 3.8
02/12:30pm -1.1 -12.8 -1.2 99 0.0 NW 50 69 27 37 - - 3.6
02/12:07pm -0.2 -10.6 -0.3 99 0.0 NW 44 63 24 34 - - 3.4
02/12:00pm -0.1 -11.2 -0.2 99 0.0 NW 48 63 26 34 - - 3.2
02/11:39am 0.0 -10.7 -0.1 99 0.0 NW 46 65 25 35 - - 2.8
02/11:30am 0.0 -10.7 -0.1 99 0.0 NW 46 61 25 33 - - 2.8
02/11:00am 0.0 -12.6 -0.1 99 0.0 NNW 56 78 30 42 - - 2.2
02/10:30am 0.1 -10.2 0.0 99 0.0 NW 44 65 24 35 - - 1.6
02/10:03am 0.2 -9.6 0.1 99 0.0 NW 41 61 22 33 - - 1.0
02/10:00am 0.2 -9.6 0.1 99 0.0 NW 41 57 22 31 - - 1.0
02/09:31am 0.1 -10.2 0.0 99 0.0 NW 44 63 24 34 - - 0.4
02/09:30am 0.1 -10.6 0.0 99 0.0 NW 46 63 25 34 - - 0.4
02/09:00am 0.2 -9.9 0.1 99 0.0 NW 43 63 23 34 - - 18.6
02/08:45am 0.4 -9.3 0.3 99 0.0 NW 41 59 22 32 - - 18.6
02/08:30am 0.5 -10.2 0.4 99 0.0 NNW 46 59 25 32 - - 18.2
02/08:00am 0.5 -12.6 0.4 99 0.0 NNW 59 80 32 43 - - 17.6
02/07:50am 0.6 -12.9 0.5 99 0.0 NNW 61 80 33 43 - - 17.6
02/07:30am 0.7 -13.2 0.6 99 0.0 NNW 63 78 34 42 - - 17.0
02/07:00am 0.8 -12.7 0.7 99 0.0 NNW 61 80 33 43 - - 16.6
02/06:48am 0.8 -12.7 0.7 99 0.0 NNW 61 80 33 43 - - 16.2
02/06:30am 0.9 -13.3 0.8 99 0.0 NNW 65 82 35 44 - - 16.0
02/06:00am 0.8 -12.3 0.7 99 0.0 NNW 59 78 32 42 - - 15.6
02/05:35am 0.6 -13.7 0.5 99 0.0 NNW 65 87 35 47 - - 15.2
02/05:30am 0.8 -13.0 0.7 99 0.0 NNW 63 80 34 43 - - 15.0
02/05:00am 0.9 -13.7 0.8 99 0.0 NNW 67 85 36 46 - - 14.4
02/04:30am 0.9 -13.3 0.8 99 0.0 NNW 65 83 35 45 - - 13.2
02/04:00am 0.7 -12.8 0.6 99 0.0 NNW 61 83 33 45 - - 10.2
02/03:30am 0.5 -12.1 0.4 99 0.0 NNW 56 78 30 42 - - 8.6
02/03:00am 0.3 -12.3 0.2 99 0.0 NNW 56 74 30 40 - - 8.0
02/02:30am 0.1 -14.2 0.0 99 0.0 NNW 65 89 35 48 - - 8.0
02/02:16am 0.1 -13.5 0.0 99 0.0 NNW 61 80 33 43 - - 8.0
02/02:00am 0.1 -13.5 0.0 99 0.0 NNW 61 78 33 42 - - 8.0
02/01:52am 0.0 -13.2 -0.1 99 0.0 NNW 59 78 32 42 - - 8.0
02/01:30am -0.2 -12.1 -0.3 99 0.0 NNW 52 63 28 34 - - 8.0
02/01:00am -0.4 -9.9 -0.5 99 0.0 NNW 39 56 21 30 - - 8.0
02/12:30am -1.2 -9.4 -1.3 99 0.0 NNW 32 43 17 23 - - 8.0
02/12:00am -1.5 -9.0 -1.6 99 0.0 NNW 28 37 15 20 - - 8.0

Other Formats:

Comma delimited format used in spreadsheet applications
http://www.bom.gov.au/fwo/IDN60801/IDN60801.95909.axf

JavaScript Object Notation format (JSON) in row-major order
http://www.bom.gov.au/fwo/IDN60801/IDN60801.95909.json